Time;durP1;ratioP1;P1;durP2;ratioP2;P2;SDS_P1;SDS_P2;PMS_P1;PMS_P2;Temp;Humidity;BMP_temperature;BMP_pressure;BME280_temperature;BME280_humidity;BME280_pressure;Samples;Min_cycle;Max_cycle;Signal;HPM_P1;HPM_P2
2023/12/02 00:00:14;;;;;;;28.03;14.03;;;-0.80;84.20;;;;;;5115235;28;20448;-73
2023/12/02 00:02:40;;;;;;;24.33;13.53;;;-0.80;86.40;;;;;;5115108;28;20480;-73
2023/12/02 00:05:08;;;;;;;24.67;16.80;;;-0.80;85.80;;;;;;5115260;28;20475;-73
2023/12/02 00:07:35;;;;;;;23.60;15.20;;;-0.80;88.80;;;;;;5114933;28;20452;-73
2023/12/02 00:10:02;;;;;;;20.20;13.40;;;-0.80;88.10;;;;;;5114874;28;20252;-73
2023/12/02 00:12:29;;;;;;;21.27;14.33;;;-0.80;88.00;;;;;;5115034;28;20476;-73
2023/12/02 00:14:57;;;;;;;21.47;13.50;;;-0.60;88.90;;;;;;5114899;28;20451;-73
2023/12/02 00:17:24;;;;;;;24.83;14.30;;;-0.80;88.80;;;;;;5114855;28;20824;-73
2023/12/02 00:19:51;;;;;;;18.73;13.33;;;-0.70;89.20;;;;;;5114797;28;20492;-73
2023/12/02 00:22:19;;;;;;;24.53;15.27;;;-0.80;89.60;;;;;;5113020;28;20452;-73
2023/12/02 00:24:46;;;;;;;23.47;14.17;;;-0.80;90.30;;;;;;5114915;28;20535;-73
2023/12/02 00:27:15;;;;;;;23.30;13.88;;;-0.80;90.60;;;;;;5114677;28;20441;-73
2023/12/02 00:29:42;;;;;;;27.10;15.97;;;-0.70;90.60;;;;;;5114789;28;20331;-73
2023/12/02 00:32:11;;;;;;;20.07;12.53;;;-0.80;90.00;;;;;;5114473;28;20532;-73
2023/12/02 00:34:37;;;;;;;24.17;14.90;;;-0.80;90.10;;;;;;5114391;28;20890;-73
2023/12/02 00:37:04;;;;;;;26.80;15.43;;;-0.80;90.60;;;;;;5114100;28;20494;-70
2023/12/02 00:39:32;;;;;;;21.33;11.60;;;-0.70;90.30;;;;;;5114595;28;20677;-70
2023/12/02 00:41:58;;;;;;;17.97;11.97;;;-0.80;87.80;;;;;;5114011;28;20979;-70
2023/12/02 00:44:25;;;;;;;23.80;13.43;;;-0.70;85.40;;;;;;5114389;28;20445;-70
2023/12/02 00:46:52;;;;;;;24.40;14.50;;;-0.80;87.90;;;;;;5114068;28;20476;-70
2023/12/02 00:49:20;;;;;;;27.90;16.87;;;-0.70;90.10;;;;;;5113972;28;20449;-70
2023/12/02 00:51:47;;;;;;;22.53;13.30;;;-0.70;90.60;;;;;;5113977;28;20477;-70
2023/12/02 00:54:14;;;;;;;27.60;15.47;;;-0.70;90.70;;;;;;5114161;28;20857;-70
2023/12/02 00:56:41;;;;;;;29.73;16.83;;;-0.70;90.70;;;;;;5113755;28;20563;-70
2023/12/02 00:59:08;;;;;;;26.87;16.13;;;-0.70;90.60;;;;;;5113839;28;20448;-70
2023/12/02 01:01:35;;;;;;;23.93;14.10;;;-0.70;90.60;;;;;;5113486;28;20480;-70
2023/12/02 01:04:02;;;;;;;23.00;15.93;;;-0.80;90.00;;;;;;5113655;28;20485;-70
2023/12/02 01:06:30;;;;;;;23.20;14.80;;;-0.70;90.00;;;;;;5113586;28;20195;-70
2023/12/02 01:08:57;;;;;;;21.23;13.50;;;-0.80;90.60;;;;;;5113888;28;20890;-70
2023/12/02 01:11:24;;;;;;;27.57;16.13;;;-0.80;90.60;;;;;;5113609;28;20533;-70
2023/12/02 01:13:51;;;;;;;24.10;14.07;;;-0.60;90.70;;;;;;5113602;28;20535;-70
2023/12/02 01:16:17;;;;;;;25.97;14.47;;;-0.80;88.60;;;;;;5113446;28;20844;-70
2023/12/02 01:18:44;;;;;;;26.17;16.03;;;-0.70;90.30;;;;;;5113398;28;20536;-70
2023/12/02 01:21:11;;;;;;;25.70;13.70;;;-0.70;90.60;;;;;;5113402;28;20452;-70
2023/12/02 01:23:39;;;;;;;23.20;13.27;;;-0.70;90.70;;;;;;5113392;28;20995;-70
2023/12/02 01:26:07;;;;;;;26.83;14.40;;;-0.80;90.60;;;;;;5113341;28;20873;-70
2023/12/02 01:28:33;;;;;;;21.40;14.17;;;-0.70;90.70;;;;;;5113314;28;20932;-70
2023/12/02 01:31:00;;;;;;;24.90;13.90;;;-0.70;90.30;;;;;;5112802;28;20480;-70
2023/12/02 01:33:27;;;;;;;26.03;15.03;;;-0.70;88.30;;;;;;5112819;28;20470;-70
2023/12/02 01:35:54;;;;;;;24.93;15.77;;;-0.70;89.10;;;;;;5113286;28;20476;-70
2023/12/02 01:38:21;;;;;;;29.93;16.27;;;-0.70;89.00;;;;;;5113278;28;20451;-70
2023/12/02 01:40:49;;;;;;;19.63;8.97;;;-0.70;90.60;;;;;;5112839;28;20498;-70
2023/12/02 01:43:23;;;;;;;33.73;15.93;;;-0.50;89.90;;;;;;5113017;28;20502;-70
2023/12/02 01:45:50;;;;;;;21.80;9.63;;;-0.70;88.50;;;;;;5112612;28;20536;-70
2023/12/02 01:48:18;;;;;;;20.60;13.60;;;-0.70;85.80;;;;;;5113127;28;20886;-70
2023/12/02 01:50:45;;;;;;;25.03;9.10;;;-0.70;86.00;;;;;;5112767;28;20823;-70
2023/12/02 01:53:12;;;;;;;20.30;13.30;;;-0.70;84.10;;;;;;5112810;28;20927;-70
2023/12/02 01:55:39;;;;;;;24.70;14.80;;;-0.70;85.90;;;;;;5112698;28;20535;-70
2023/12/02 01:58:07;;;;;;;28.13;14.93;;;-0.70;87.90;;;;;;5112664;28;20448;-70
2023/12/02 02:00:34;;;;;;;11.97;6.83;;;-0.70;87.20;;;;;;5112692;28;20531;-70
2023/12/02 02:03:01;;;;;;;24.05;13.48;;;-0.70;85.60;;;;;;5112676;28;20532;-70
2023/12/02 02:05:28;;;;;;;22.75;13.18;;;-0.70;87.00;;;;;;5112612;28;20197;-70
2023/12/02 02:07:55;;;;;;;17.92;10.60;;;-0.70;88.40;;;;;;5112678;28;20665;-70
2023/12/02 02:10:22;;;;;;;17.10;11.00;;;-0.70;87.50;;;;;;5112344;28;20201;-70
2023/12/02 02:12:50;;;;;;;21.17;13.50;;;-0.70;87.90;;;;;;5112408;28;20432;-70
2023/12/02 02:15:18;;;;;;;20.83;12.63;;;-0.70;89.70;;;;;;5112239;28;20459;-70
2023/12/02 02:17:45;;;;;;;14.43;8.20;;;-0.70;89.10;;;;;;5112194;28;20472;-70
2023/12/02 02:20:12;;;;;;;25.57;15.33;;;-0.70;87.90;;;;;;5112168;28;20532;-70
2023/12/02 02:22:41;;;;;;;26.87;15.30;;;-0.70;89.80;;;;;;5112686;28;20509;-70
2023/12/02 02:25:08;;;;;;;23.83;13.60;;;-0.70;89.40;;;;;;5112323;28;20487;-70
2023/12/02 02:27:35;;;;;;;23.63;13.13;;;-0.70;87.10;;;;;;5112076;28;20453;-70
2023/12/02 02:30:02;;;;;;;13.80;9.00;;;-0.70;88.60;;;;;;5112203;28;20451;-70
2023/12/02 02:32:29;;;;;;;17.40;10.43;;;-0.70;85.20;;;;;;5112164;28;20906;-70
2023/12/02 02:34:56;;;;;;;23.20;13.93;;;-0.70;87.40;;;;;;5112054;28;20461;-70
2023/12/02 02:37:23;;;;;;;18.37;10.27;;;-0.70;87.00;;;;;;5112036;28;20576;-70
2023/12/02 02:39:51;;;;;;;24.47;14.57;;;-0.70;85.30;;;;;;5111941;28;20480;-70
2023/12/02 02:42:18;;;;;;;22.45;13.23;;;-0.70;86.40;;;;;;5111743;28;20451;-70
2023/12/02 02:44:45;;;;;;;22.25;11.38;;;-0.70;88.90;;;;;;5111694;28;20195;-70
2023/12/02 02:47:12;;;;;;;21.50;11.90;;;-0.70;85.50;;;;;;5111948;28;20191;-70
2023/12/02 02:49:39;;;;;;;22.20;12.87;;;-0.70;85.10;;;;;;5112088;28;20448;-70
2023/12/02 02:52:06;;;;;;;21.33;12.75;;;-0.70;84.10;;;;;;5111860;28;20444;-70
2023/12/02 02:54:33;;;;;;;26.65;13.82;;;-0.70;84.10;;;;;;5112352;28;20285;-70
2023/12/02 02:57:02;;;;;;;12.83;7.97;;;-0.80;87.80;;;;;;5111984;28;20590;-70
2023/12/02 02:59:29;;;;;;;21.93;14.20;;;-0.80;84.10;;;;;;5111827;28;20449;-70
2023/12/02 03:01:56;;;;;;;15.17;9.70;;;-0.80;85.20;;;;;;5111687;28;20445;-70
2023/12/02 03:04:23;;;;;;;10.80;8.10;;;-0.80;84.00;;;;;;5111935;28;20937;-70
2023/12/02 03:06:50;;;;;;;21.70;13.67;;;-0.70;84.10;;;;;;5111739;28;20897;-70
2023/12/02 03:09:17;;;;;;;16.50;10.80;;;-0.70;84.10;;;;;;5112082;28;20452;-70
2023/12/02 03:11:47;;;;;;;12.57;7.33;;;-0.80;84.10;;;;;;5111964;28;20559;-70
2023/12/02 03:14:15;;;;;;;25.33;13.90;;;-0.70;86.30;;;;;;5111894;28;20448;-70
2023/12/02 03:16:42;;;;;;;27.40;14.97;;;-0.70;86.40;;;;;;5111653;28;20468;-70
2023/12/02 03:19:09;;;;;;;26.63;14.10;;;-0.70;86.40;;;;;;5111788;28;20816;-70
2023/12/02 03:21:36;;;;;;;27.90;14.50;;;-0.70;86.80;;;;;;5111381;28;20514;-70
2023/12/02 03:24:04;;;;;;;25.20;14.97;;;-0.80;86.50;;;;;;5111827;28;20924;-70
2023/12/02 03:26:31;;;;;;;26.30;15.10;;;-0.70;85.10;;;;;;5111793;28;20501;-70
2023/12/02 03:28:58;;;;;;;22.53;13.77;;;-0.70;87.00;;;;;;5111773;28;20476;-70
2023/12/02 03:31:26;;;;;;;27.23;15.63;;;-0.70;85.80;;;;;;5111164;28;20931;-70
2023/12/02 03:33:53;;;;;;;29.70;16.30;;;-0.70;85.60;;;;;;5111410;28;20464;-70
2023/12/02 03:36:20;;;;;;;24.20;14.47;;;-0.70;85.30;;;;;;5111587;28;20451;-70
2023/12/02 03:38:47;;;;;;;22.00;12.87;;;-0.80;87.60;;;;;;5111746;28;20448;-70
2023/12/02 03:41:14;;;;;;;17.08;6.30;;;-0.80;84.40;;;;;;5111373;28;20440;-70
2023/12/02 03:43:41;;;;;;;14.55;8.63;;;-0.80;84.10;;;;;;5111627;28;20556;-70
2023/12/02 03:46:08;;;;;;;21.70;14.17;;;-0.80;84.10;;;;;;5111486;28;20282;-70
2023/12/02 03:48:37;;;;;;;23.43;14.23;;;-0.80;84.10;;;;;;5111378;28;20448;-70
2023/12/02 03:51:04;;;;;;;22.70;14.00;;;-0.80;84.00;;;;;;5111546;28;20904;-70
2023/12/02 03:53:34;;;;;;;24.10;14.43;;;-0.80;84.10;;;;;;5111530;28;20449;-70
2023/12/02 03:56:01;;;;;;;20.30;12.27;;;-0.80;87.90;;;;;;5112503;28;20947;-70
2023/12/02 03:58:28;;;;;;;25.15;15.13;;;-0.80;86.20;;;;;;5114956;28;20476;-70
2023/12/02 04:00:56;;;;;;;18.50;12.93;;;-0.80;87.00;;;;;;5115246;28;20214;-70
2023/12/02 04:03:23;;;;;;;19.80;12.38;;;-0.80;86.70;;;;;;5114924;28;20795;-70
2023/12/02 04:05:53;;;;;;;24.50;15.47;;;-0.70;84.30;;;;;;5114830;28;20202;-70
2023/12/02 04:08:20;;;;;;;23.67;12.83;;;-0.80;85.80;;;;;;5114870;28;20444;-70
2023/12/02 04:10:47;;;;;;;10.70;7.33;;;-0.80;87.10;;;;;;5114622;28;20457;-70
2023/12/02 04:13:14;;;;;;;18.80;10.67;;;-0.80;84.00;;;;;;5114637;28;20441;-70
2023/12/02 04:15:41;;;;;;;29.90;16.60;;;-0.80;85.80;;;;;;5114555;28;20459;-70
2023/12/02 04:18:08;;;;;;;29.53;15.43;;;-0.80;87.40;;;;;;5114893;28;20472;-70
2023/12/02 04:20:35;;;;;;;19.57;13.13;;;-0.80;88.40;;;;;;5114527;28;20919;-70
2023/12/02 04:23:04;;;;;;;28.47;14.77;;;-0.80;87.60;;;;;;5114538;28;20495;-70
2023/12/02 04:25:31;;;;;;;17.83;12.10;;;-0.80;89.00;;;;;;5114542;28;20480;-70
2023/12/02 04:27:58;;;;;;;26.17;14.37;;;-0.80;84.00;;;;;;5114442;28;20449;-70
2023/12/02 04:30:24;;;;;;;23.70;12.27;;;-0.80;88.00;;;;;;5114113;28;20449;-70
2023/12/02 04:32:51;;;;;;;25.57;14.27;;;-0.80;84.10;;;;;;5114277;28;20453;-70
2023/12/02 04:35:18;;;;;;;25.27;15.53;;;-0.80;84.10;;;;;;5114200;28;20457;-70
2023/12/02 04:37:45;;;;;;;30.97;17.73;;;-0.80;84.10;;;;;;5114257;28;20998;-70
2023/12/02 04:40:13;;;;;;;26.57;15.97;;;-0.80;85.40;;;;;;5114140;28;20973;-70
2023/12/02 04:42:41;;;;;;;27.57;16.90;;;-0.80;87.70;;;;;;5113827;28;20449;-70
2023/12/02 04:45:09;;;;;;;20.13;12.47;;;-0.80;88.30;;;;;;5114261;28;20445;-70
2023/12/02 04:47:37;;;;;;;28.40;15.13;;;-0.90;85.30;;;;;;5113968;28;20991;-70
2023/12/02 04:50:04;;;;;;;26.77;15.17;;;-0.80;87.30;;;;;;5114170;28;20483;-70
2023/12/02 04:52:32;;;;;;;26.13;15.02;;;-0.80;85.30;;;;;;5113886;28;20445;-70
2023/12/02 04:54:59;;;;;;;22.38;13.65;;;-0.80;88.20;;;;;;5113977;28;20658;-70
2023/12/02 04:57:27;;;;;;;21.03;12.90;;;-0.80;87.30;;;;;;5113553;28;20242;-70
2023/12/02 04:59:54;;;;;;;22.17;14.20;;;-0.80;84.00;;;;;;5114313;28;20484;-70
2023/12/02 05:02:22;;;;;;;14.83;10.93;;;-0.80;84.00;;;;;;5113776;28;20873;-70
2023/12/02 05:04:49;;;;;;;23.80;14.10;;;-0.80;84.00;;;;;;5114047;28;20784;-70
2023/12/02 05:07:15;;;;;;;24.60;15.43;;;-0.90;83.90;;;;;;5112908;28;20510;-70
2023/12/02 05:09:42;;;;;;;22.80;14.93;;;-0.80;84.00;;;;;;5113580;28;20481;-70
2023/12/02 05:12:10;;;;;;;23.47;11.20;;;-0.80;84.00;;;;;;5113615;28;20529;-70
2023/12/02 05:14:39;;;;;;;20.47;12.37;;;-0.90;83.90;;;;;;5113900;28;20444;-70
2023/12/02 05:17:05;;;;;;;17.97;10.93;;;-0.90;83.90;;;;;;5113451;28;20552;-70
2023/12/02 05:19:32;;;;;;;19.97;11.80;;;-0.90;83.90;;;;;;5113476;28;20531;-70
2023/12/02 05:21:59;;;;;;;16.40;9.87;;;-0.90;83.90;;;;;;5113220;28;20531;-70
2023/12/02 05:24:26;;;;;;;14.90;8.57;;;-0.90;83.90;;;;;;5113184;28;20452;-70
2023/12/02 05:26:53;;;;;;;19.43;11.40;;;-0.90;83.90;;;;;;5113474;28;20449;-69
2023/12/02 05:29:20;;;;;;;22.88;13.50;;;-0.90;83.90;;;;;;5113516;28;20735;-70
2023/12/02 05:31:48;;;;;;;21.93;14.50;;;-0.90;83.90;;;;;;5112911;28;20236;-70
2023/12/02 05:34:15;;;;;;;26.15;15.55;;;-0.90;83.90;;;;;;5113005;28;20463;-69
2023/12/02 05:36:45;;;;;;;21.67;13.40;;;-0.90;83.90;;;;;;5113017;28;20285;-69
2023/12/02 05:39:12;;;;;;;21.90;14.30;;;-0.90;83.90;;;;;;5113350;28;20560;-69
2023/12/02 05:41:40;;;;;;;23.73;13.60;;;-0.90;83.90;;;;;;5112646;28;20928;-70
2023/12/02 05:44:07;;;;;;;25.37;13.67;;;-0.90;83.90;;;;;;5113228;28;20539;-70
2023/12/02 05:46:34;;;;;;;22.73;15.20;;;-0.90;83.90;;;;;;5112958;28;20801;-70
2023/12/02 05:49:03;;;;;;;29.20;16.80;;;-0.90;83.90;;;;;;5112771;28;20502;-70
2023/12/02 05:51:30;;;;;;;23.67;13.77;;;-0.80;84.00;;;;;;5112568;28;20566;-70
2023/12/02 05:53:56;;;;;;;24.70;14.57;;;-0.90;84.00;;;;;;5112977;28;20472;-70
2023/12/02 05:56:23;;;;;;;25.43;15.47;;;-0.90;83.90;;;;;;5112636;28;20488;-70
2023/12/02 05:58:50;;;;;;;24.10;11.70;;;-0.90;83.90;;;;;;5112426;28;20477;-70
2023/12/02 06:01:20;;;;;;;16.67;8.50;;;-0.90;83.90;;;;;;5112540;28;20536;-70
2023/12/02 06:03:48;;;;;;;17.37;10.67;;;-0.90;83.90;;;;;;5112442;28;20444;-70
2023/12/02 06:06:17;;;;;;;19.00;11.70;;;-0.90;83.90;;;;;;5112200;28;20449;-70
2023/12/02 06:08:44;;;;;;;23.70;11.97;;;-0.90;83.90;;;;;;5112097;28;20532;-70
2023/12/02 06:11:11;;;;;;;24.63;13.93;;;-1.00;84.60;;;;;;5112225;28;20453;-69
2023/12/02 06:13:37;;;;;;;13.90;8.30;;;-1.00;84.40;;;;;;5112411;28;20613;-69
2023/12/02 06:16:05;;;;;;;28.93;16.43;;;-1.00;83.80;;;;;;5112223;28;20484;-70
2023/12/02 06:18:32;;;;;;;27.00;14.30;;;-0.90;84.00;;;;;;5112049;28;20995;-70
2023/12/02 06:20:59;;;;;;;20.97;10.93;;;-0.90;83.90;;;;;;5111800;28;20451;-70
2023/12/02 06:23:27;;;;;;;11.30;7.20;;;-0.90;83.90;;;;;;5112228;28;20828;-70
2023/12/02 06:25:54;;;;;;;16.63;10.13;;;-1.00;83.80;;;;;;5111844;28;20452;-70
2023/12/02 06:28:21;;;;;;;11.63;6.43;;;-1.00;83.90;;;;;;5111999;28;20523;-70
2023/12/02 06:30:48;;;;;;;16.40;10.30;;;-1.00;83.90;;;;;;5111745;28;20449;-70
2023/12/02 06:33:15;;;;;;;12.90;7.50;;;-1.00;86.10;;;;;;5111746;28;21018;-71
2023/12/02 06:35:42;;;;;;;17.43;10.87;;;-0.90;83.90;;;;;;5112085;28;20473;-69
2023/12/02 06:38:09;;;;;;;16.03;9.80;;;-0.80;88.60;;;;;;5111934;28;20558;-69
2023/12/02 06:40:37;;;;;;;16.10;8.53;;;-1.00;83.90;;;;;;5111711;28;20444;-69
2023/12/02 06:43:04;;;;;;;16.25;9.70;;;-1.00;83.90;;;;;;5111808;28;20936;-70
2023/12/02 06:45:31;;;;;;;8.80;6.33;;;-1.00;89.40;;;;;;5111831;28;20195;-69
2023/12/02 06:47:58;;;;;;;11.97;7.17;;;-1.00;88.30;;;;;;5111562;28;20444;-70
2023/12/02 06:50:25;;;;;;;16.33;9.33;;;-1.00;83.80;;;;;;5111530;28;20963;-69
2023/12/02 06:52:51;;;;;;;12.67;8.17;;;-1.00;87.40;;;;;;5111584;28;20444;-70
2023/12/02 06:55:18;;;;;;;20.10;12.03;;;-1.00;85.90;;;;;;5111455;28;20459;-70
2023/12/02 06:57:47;;;;;;;9.87;6.30;;;-1.00;88.30;;;;;;5111561;28;20494;-70
2023/12/02 07:00:15;;;;;;;17.50;6.75;;;-1.00;83.80;;;;;;5111416;28;20459;-70
2023/12/02 07:02:43;;;;;;;13.90;8.40;;;-1.00;83.80;;;;;;5107997;28;20223;-70
2023/12/02 07:05:10;;;;;;;12.00;7.30;;;-1.10;83.80;;;;;;5111045;28;20444;-69
2023/12/02 07:07:37;;;;;;;15.30;8.30;;;-1.00;83.90;;;;;;5110758;28;20452;-73
2023/12/02 07:10:04;;;;;;;18.87;10.80;;;-1.10;83.80;;;;;;5110634;28;20536;-73
2023/12/02 07:12:31;;;;;;;14.83;8.20;;;-1.10;83.80;;;;;;5111612;28;20851;-73
2023/12/02 07:14:59;;;;;;;16.90;9.60;;;-1.10;83.80;;;;;;5111423;28;20455;-73
2023/12/02 07:17:26;;;;;;;13.43;7.90;;;-1.00;86.20;;;;;;5111794;28;20821;-73
2023/12/02 07:19:53;;;;;;;14.03;8.47;;;-1.10;85.30;;;;;;5111920;28;20474;-69
2023/12/02 07:22:20;;;;;;;12.80;7.03;;;-1.00;87.40;;;;;;5110836;28;20444;-69
2023/12/02 07:24:47;;;;;;;13.13;8.27;;;-1.00;89.40;;;;;;5110893;28;20793;-69
2023/12/02 07:27:14;;;;;;;17.57;8.17;;;-1.10;84.00;;;;;;5111361;28;20201;-70
2023/12/02 07:29:40;;;;;;;20.10;9.97;;;-1.00;90.50;;;;;;5111131;28;20467;-69
2023/12/02 07:32:09;;;;;;;16.75;9.15;;;-1.00;91.10;;;;;;5114640;28;20787;-69
2023/12/02 07:34:36;;;;;;;16.55;8.05;;;-1.00;89.30;;;;;;5115321;28;20222;-70
2023/12/02 07:37:03;;;;;;;16.53;6.37;;;-1.00;85.30;;;;;;5115248;28;20191;-69
2023/12/02 07:39:30;;;;;;;17.00;9.10;;;-1.00;85.30;;;;;;5115072;28;20507;-69
2023/12/02 07:41:57;;;;;;;9.27;6.50;;;-1.00;87.60;;;;;;5114867;28;20531;-70
2023/12/02 07:44:25;;;;;;;14.37;7.40;;;-1.10;84.60;;;;;;5115779;28;20531;-70
2023/12/02 07:46:51;;;;;;;14.30;8.87;;;-1.00;83.90;;;;;;5115383;28;20441;-69
2023/12/02 07:49:20;;;;;;;17.50;9.03;;;-1.00;90.40;;;;;;5115315;28;20473;-69
2023/12/02 07:51:47;;;;;;;15.07;8.73;;;-1.00;86.10;;;;;;5114907;28;20449;-69
2023/12/02 07:54:14;;;;;;;13.60;5.60;;;-1.00;83.90;;;;;;5115022;28;20448;-70
2023/12/02 07:56:41;;;;;;;22.33;10.80;;;-1.00;83.80;;;;;;5114906;28;21102;-69
2023/12/02 07:59:08;;;;;;;20.87;10.00;;;-1.00;83.80;;;;;;5114981;28;20479;-70
2023/12/02 08:01:35;;;;;;;11.73;7.30;;;-1.00;85.10;;;;;;5115216;28;20841;-70
2023/12/02 08:04:02;;;;;;;13.70;7.80;;;-0.90;84.00;;;;;;5114801;28;20932;-69
2023/12/02 08:06:31;;;;;;;17.87;10.07;;;-0.90;84.10;;;;;;5114730;28;20536;-70
2023/12/02 08:08:58;;;;;;;21.13;11.60;;;-0.90;84.00;;;;;;5114606;28;20535;-70
2023/12/02 08:11:26;;;;;;;20.20;12.63;;;-0.90;83.90;;;;;;5114596;28;20455;-69
2023/12/02 08:13:53;;;;;;;22.07;10.67;;;-0.80;84.00;;;;;;5114400;28;20448;-70
2023/12/02 08:16:20;;;;;;;19.67;12.17;;;-0.80;86.40;;;;;;5113870;28;20552;-70
2023/12/02 08:18:47;;;;;;;13.80;7.87;;;-0.80;84.10;;;;;;5114001;28;20472;-69
2023/12/02 08:21:14;;;;;;;19.90;11.50;;;-0.80;84.00;;;;;;5114162;28;20819;-69
2023/12/02 08:23:42;;;;;;;18.63;12.33;;;-0.70;84.90;;;;;;5114531;28;20475;-69
2023/12/02 08:26:09;;;;;;;21.07;11.63;;;-0.70;87.90;;;;;;5114492;28;20448;-70
2023/12/02 08:28:36;;;;;;;19.90;11.13;;;-0.70;84.10;;;;;;5114196;28;20532;-69
2023/12/02 08:31:03;;;;;;;11.10;7.30;;;-0.70;84.10;;;;;;5114284;28;20451;-69
2023/12/02 08:33:29;;;;;;;18.70;9.63;;;-0.70;84.10;;;;;;5114146;28;20457;-69
2023/12/02 08:35:56;;;;;;;19.30;11.80;;;-0.60;84.20;;;;;;5113568;28;20441;-69
2023/12/02 08:38:23;;;;;;;21.00;11.70;;;-0.60;84.20;;;;;;5113942;28;20476;-70
2023/12/02 08:40:51;;;;;;;18.27;8.50;;;-0.60;84.20;;;;;;5113978;28;20448;-70
2023/12/02 08:43:18;;;;;;;22.00;13.17;;;-0.50;84.30;;;;;;5112915;28;20441;-69
2023/12/02 08:45:45;;;;;;;15.10;9.23;;;-0.50;85.10;;;;;;5114049;28;20456;-70
2023/12/02 08:48:12;;;;;;;23.40;13.27;;;-0.50;84.30;;;;;;5113890;28;20191;-69
2023/12/02 08:50:39;;;;;;;14.20;8.90;;;-0.40;84.40;;;;;;5113431;28;20444;-69
2023/12/02 08:53:06;;;;;;;16.00;8.90;;;-0.50;84.20;;;;;;5113775;28;20979;-69
2023/12/02 08:55:33;;;;;;;12.87;7.90;;;-0.50;84.20;;;;;;5113882;28;20453;-69
2023/12/02 08:58:02;;;;;;;19.00;11.90;;;-0.50;83.80;;;;;;5113944;28;20807;-69
2023/12/02 09:00:30;;;;;;;20.37;11.67;;;-0.30;84.40;;;;;;5113494;28;20951;-69
2023/12/02 09:02:56;;;;;;;22.37;12.50;;;-0.30;85.20;;;;;;5113634;28;20452;-69
2023/12/02 09:05:23;;;;;;;23.50;15.00;;;-0.30;84.40;;;;;;5113295;28;20479;-70
2023/12/02 09:07:50;;;;;;;25.67;13.20;;;-0.20;84.50;;;;;;5113587;28;20449;-69
2023/12/02 09:10:18;;;;;;;20.93;12.53;;;-0.20;84.50;;;;;;5113542;28;20864;-70
2023/12/02 09:12:45;;;;;;;19.55;12.40;;;-0.20;84.40;;;;;;5113508;28;20449;-70
2023/12/02 09:15:45;;;;;;;17.60;11.43;;;0.00;84.70;;;;;;5113466;28;20202;-70
2023/12/02 09:18:14;;;;;;;23.60;12.87;;;0.00;81.30;;;;;;5113526;28;20852;-69
2023/12/02 09:20:45;;;;;;;22.40;12.70;;;0.10;79.30;;;;;;5113117;28;20863;-69
2023/12/02 09:23:13;;;;;;;22.33;16.00;;;0.20;79.50;;;;;;5113236;28;20936;-70
2023/12/02 09:25:42;;;;;;;22.43;13.20;;;0.40;79.20;;;;;;5113037;28;20540;-69
2023/12/02 09:28:30;;;;;;;23.07;13.13;;;0.40;74.00;;;;;;5113118;28;20548;-69
2023/12/02 09:31:06;;;;;;;24.60;12.30;;;0.60;75.80;;;;;;5113068;28;20480;-70
2023/12/02 09:33:35;;;;;;;25.93;14.20;;;0.50;76.30;;;;;;5112850;28;20452;-70
2023/12/02 09:36:03;;;;;;;21.40;13.50;;;0.40;77.50;;;;;;5112597;28;20444;-70
2023/12/02 09:38:34;;;;;;;22.80;14.60;;;0.40;77.50;;;;;;5111711;28;20460;-70
2023/12/02 09:41:26;;;;;;;28.08;17.85;;;0.30;77.50;;;;;;5093493;28;20801;-70
2023/12/02 09:44:23;;;;;;;23.83;15.03;;;0.30;81.70;;;;;;5092499;28;20628;-70
2023/12/02 09:47:04;;;;;;;22.27;13.57;;;0.30;77.40;;;;;;5075410;28;20524;-73
2023/12/02 09:50:01;;;;;;;17.07;9.90;;;0.20;77.30;;;;;;5096209;28;20444;-74
2023/12/02 09:53:00;;;;;;;16.30;8.90;;;0.10;77.30;;;;;;5093074;28;20697;-73
2023/12/02 09:55:37;;;;;;;19.52;9.88;;;0.10;77.30;;;;;;5093102;28;20481;-73
2023/12/02 09:58:19;;;;;;;25.77;14.90;;;0.00;84.70;;;;;;5092267;28;20206;-73
2023/12/02 10:00:53;;;;;;;24.87;15.20;;;0.10;84.80;;;;;;5092024;28;20445;-73
2023/12/02 10:03:54;;;;;;;23.57;14.70;;;0.00;84.70;;;;;;5092767;28;20454;-73
2023/12/02 10:06:48;;;;;;;26.20;14.90;;;0.10;84.80;;;;;;5086019;28;20456;-73
2023/12/02 10:09:30;;;;;;;28.40;16.67;;;0.10;84.80;;;;;;5092353;28;20438;-73
2023/12/02 10:12:06;;;;;;;28.90;15.97;;;0.10;84.80;;;;;;5096143;28;20477;-73
2023/12/02 10:14:36;;;;;;;26.90;15.87;;;0.10;84.80;;;;;;5093520;28;20502;-74
2023/12/02 10:17:05;;;;;;;25.27;12.47;;;0.30;84.90;;;;;;5092139;28;20457;-74
2023/12/02 10:19:39;;;;;;;24.97;13.70;;;0.40;85.00;;;;;;5092089;28;20473;-74
2023/12/02 10:22:16;;;;;;;24.40;15.93;;;0.40;85.00;;;;;;5091899;28;20937;-74
2023/12/02 10:24:54;;;;;;;18.87;10.90;;;0.60;85.20;;;;;;5090627;28;20450;-70
2023/12/02 10:27:21;;;;;;;23.27;15.87;;;0.40;84.10;;;;;;5091754;28;20442;-70
2023/12/02 10:29:54;;;;;;;19.00;11.40;;;0.40;85.00;;;;;;5091954;28;20498;-70
2023/12/02 10:32:32;;;;;;;21.70;11.90;;;0.60;85.20;;;;;;5091980;28;20449;-69
2023/12/02 10:35:09;;;;;;;27.60;14.70;;;0.50;85.10;;;;;;5091945;28;20880;-70
2023/12/02 10:37:42;;;;;;;29.13;15.40;;;0.50;85.10;;;;;;5095989;28;20448;-70
2023/12/02 10:40:10;;;;;;;25.90;14.13;;;0.60;85.20;;;;;;5094792;28;20480;-70
2023/12/02 10:42:47;;;;;;;23.90;14.20;;;0.80;85.30;;;;;;5097573;28;20445;-70
2023/12/02 10:45:16;;;;;;;24.50;16.93;;;0.90;79.30;;;;;;5109371;28;20448;-70
2023/12/02 10:47:47;;;;;;;26.93;14.50;;;0.90;79.70;;;;;;5091506;28;20452;-70
2023/12/02 10:50:16;;;;;;;35.37;14.50;;;0.80;77.90;;;;;;5091467;28;20426;-70
2023/12/02 10:52:58;;;;;;;21.10;13.20;;;0.80;75.50;;;;;;5091659;28;20533;-70
2023/12/02 10:55:26;;;;;;;25.03;15.83;;;0.80;74.00;;;;;;5091348;28;20457;-70
2023/12/02 10:57:54;;;;;;;25.50;14.80;;;0.80;75.90;;;;;;5091606;28;20479;-70
2023/12/02 11:00:23;;;;;;;25.40;14.77;;;0.90;76.10;;;;;;5111766;28;20473;-70
2023/12/02 11:02:52;;;;;;;24.40;14.33;;;1.10;78.10;;;;;;5111302;28;20471;-70
2023/12/02 11:05:24;;;;;;;31.83;15.00;;;1.10;74.30;;;;;;5111931;28;20532;-70
2023/12/02 11:07:55;;;;;;;23.30;13.90;;;1.20;75.60;;;;;;5100891;28;20926;-70
2023/12/02 11:10:39;;;;;;;25.07;14.67;;;1.30;70.50;;;;;;5095177;28;20631;-70
2023/12/02 11:13:13;;;;;;;23.90;15.77;;;1.50;70.70;;;;;;5094442;28;20454;-70
2023/12/02 11:16:09;;;;;;;28.07;15.57;;;1.70;70.90;;;;;;5095662;28;20549;-70
2023/12/02 11:18:52;;;;;;;31.07;16.70;;;1.70;70.90;;;;;;5095469;28;20530;-70
2023/12/02 11:21:28;;;;;;;28.30;15.83;;;1.80;71.00;;;;;;5095027;28;20439;-73
2023/12/02 11:24:06;;;;;;;36.50;15.97;;;1.80;71.00;;;;;;5095124;28;20986;-70
2023/12/02 11:26:44;;;;;;;33.13;15.37;;;2.10;71.20;;;;;;5108512;28;20535;-70
2023/12/02 11:29:22;;;;;;;32.13;17.50;;;2.70;66.00;;;;;;5115713;28;20943;-70
2023/12/02 11:32:10;;;;;;;24.60;14.70;;;3.00;64.00;;;;;;5105490;28;20537;-70
2023/12/02 11:34:55;;;;;;;27.17;15.40;;;3.30;56.20;;;;;;5095556;28;20459;-71
2023/12/02 11:37:33;;;;;;;24.77;14.00;;;2.90;53.30;;;;;;5103395;28;20448;-71
2023/12/02 11:40:12;;;;;;;22.47;13.73;;;2.60;51.70;;;;;;5107367;28;20476;-71
2023/12/02 11:42:51;;;;;;;25.80;14.60;;;2.80;55.70;;;;;;5095319;28;20535;-71
2023/12/02 11:45:25;;;;;;;23.60;13.73;;;3.10;55.90;;;;;;5095288;28;20448;-72
2023/12/02 11:48:17;;;;;;;26.20;15.53;;;3.40;49.10;;;;;;5095350;28;20473;-73
2023/12/02 11:51:06;;;;;;;28.10;18.05;;;3.50;47.90;;;;;;5093819;28;20444;-72
2023/12/02 11:53:56;;;;;;;26.43;14.37;;;3.00;47.50;;;;;;5098764;28;20212;-71
2023/12/02 11:56:26;;;;;;;23.73;15.70;;;2.80;47.30;;;;;;5102999;28;20440;-71
2023/12/02 11:58:55;;;;;;;21.33;13.83;;;2.90;47.40;;;;;;5096444;28;20450;-72
2023/12/02 12:01:47;;;;;;;28.57;15.77;;;2.90;47.40;;;;;;5095773;28;20454;-72
2023/12/02 12:04:31;;;;;;;21.50;13.93;;;2.60;47.10;;;;;;5101172;28;20821;-72
2023/12/02 12:07:09;;;;;;;23.40;14.13;;;2.20;48.30;;;;;;5103302;28;20873;-72
2023/12/02 12:09:43;;;;;;;24.87;14.23;;;2.00;55.00;;;;;;5099218;28;20947;-72
2023/12/02 12:12:13;;;;;;;24.03;13.33;;;1.90;54.90;;;;;;5098904;28;20556;-72
2023/12/02 12:14:42;;;;;;;29.97;14.80;;;2.00;54.80;;;;;;5107318;28;20536;-72
2023/12/02 12:17:08;;;;;;;25.90;14.57;;;2.30;55.30;;;;;;5103388;28;20444;-73
2023/12/02 12:19:35;;;;;;;27.33;16.27;;;2.40;52.40;;;;;;5096705;28;21041;-72
2023/12/02 12:22:02;;;;;;;22.50;14.13;;;2.40;51.90;;;;;;5112079;28;20449;-72
2023/12/02 12:24:29;;;;;;;22.87;13.50;;;2.40;53.00;;;;;;5114376;28;20530;-72
2023/12/02 12:26:56;;;;;;;23.80;15.47;;;2.60;50.20;;;;;;5113227;28;20881;-72
2023/12/02 12:29:25;;;;;;;23.00;13.40;;;2.70;47.20;;;;;;5106047;28;20437;-72
2023/12/02 12:31:54;;;;;;;19.30;12.10;;;2.70;47.30;;;;;;5107125;28;20476;-72
2023/12/02 12:34:21;;;;;;;21.10;12.07;;;2.70;47.20;;;;;;5099979;28;20968;-73
2023/12/02 12:36:48;;;;;;;26.57;13.90;;;3.10;47.60;;;;;;5104866;28;20447;-73
2023/12/02 12:39:19;;;;;;;29.73;14.07;;;3.40;44.00;;;;;;5113655;28;20457;-73
2023/12/02 12:41:48;;;;;;;30.27;14.07;;;4.00;44.40;;;;;;5113614;28;20449;-73